Time;durP1;ratioP1;P1;durP2;ratioP2;P2;SDS_P1;SDS_P2;PMS_P1;PMS_P2;Temp;Humidity;BMP_temperature;BMP_pressure;BME280_temperature;BME280_humidity;BME280_pressure;Samples;Min_cycle;Max_cycle;Signal;HPM_P1;HPM_P2
2021/05/01 00:01:36;;;;;;;24.38;22.02;;;11.20;75.40;;;;;;5034662;28;20033;-78
2021/05/01 00:04:02;;;;;;;25.58;23.15;;;11.10;75.50;;;;;;5015145;28;20088;-78
2021/05/01 00:06:28;;;;;;;24.42;22.13;;;11.10;75.70;;;;;;4984112;28;20083;-79
2021/05/01 00:08:56;;;;;;;25.02;22.52;;;11.00;75.80;;;;;;5000627;28;20145;-79
2021/05/01 00:11:23;;;;;;;24.55;22.25;;;11.00;76.00;;;;;;4997386;28;20053;-79
2021/05/01 00:13:49;;;;;;;25.13;22.58;;;10.90;76.10;;;;;;4968756;28;20049;-76
2021/05/01 00:16:15;;;;;;;25.20;22.65;;;10.90;76.20;;;;;;5006894;28;20034;-82
2021/05/01 00:18:41;;;;;;;24.95;22.50;;;10.80;76.20;;;;;;5016636;28;20040;-77
2021/05/01 00:21:06;;;;;;;25.65;23.05;;;10.80;76.30;;;;;;4999883;28;20053;-76
2021/05/01 00:23:32;;;;;;;25.27;22.85;;;10.70;76.40;;;;;;4999537;28;20041;-76
2021/05/01 00:25:59;;;;;;;25.13;22.52;;;10.70;76.40;;;;;;4999053;28;20509;-77
2021/05/01 00:28:26;;;;;;;26.10;23.50;;;10.70;76.50;;;;;;4980927;28;20397;-76
2021/05/01 00:30:51;;;;;;;25.35;22.85;;;10.60;76.60;;;;;;5004448;28;20053;-75
2021/05/01 00:33:17;;;;;;;25.38;22.77;;;10.60;76.60;;;;;;5014861;28;20497;-80
2021/05/01 00:35:43;;;;;;;26.13;23.35;;;10.60;76.70;;;;;;4998682;28;20374;-76
2021/05/01 00:38:09;;;;;;;25.65;23.02;;;10.60;76.70;;;;;;5006316;28;20080;-77
2021/05/01 00:40:37;;;;;;;24.63;22.13;;;10.50;76.80;;;;;;5030450;28;20045;-80
2021/05/01 00:43:03;;;;;;;24.38;21.88;;;10.50;76.80;;;;;;4983269;28;20037;-80
2021/05/01 00:45:29;;;;;;;25.88;23.20;;;10.50;76.90;;;;;;4982768;28;20046;-81
2021/05/01 00:47:55;;;;;;;24.40;22.00;;;10.50;76.90;;;;;;4968710;28;20052;-83
2021/05/01 00:50:21;;;;;;;26.27;23.70;;;10.40;76.90;;;;;;4992885;28;20399;-78
2021/05/01 00:52:47;;;;;;;26.10;23.40;;;10.50;77.00;;;;;;5006163;28;20046;-75
2021/05/01 00:55:13;;;;;;;24.35;21.95;;;10.40;77.10;;;;;;4994854;28;20045;-75
2021/05/01 00:57:38;;;;;;;24.30;21.88;;;10.50;77.10;;;;;;5006109;28;20482;-76
2021/05/01 01:02:49;;;;;;;24.80;22.20;;;10.50;77.10;;;;;;5004886;28;20042;-75
2021/05/01 01:05:15;;;;;;;25.10;22.50;;;10.50;77.10;;;;;;4979650;28;20068;-75
2021/05/01 01:07:41;;;;;;;25.13;22.50;;;10.40;77.90;;;;;;5024900;28;20492;-76
2021/05/01 01:10:07;;;;;;;24.70;22.17;;;10.50;77.20;;;;;;5031926;28;20096;-76
2021/05/01 01:12:33;;;;;;;24.92;22.35;;;10.40;77.10;;;;;;5014454;28;20042;-76
2021/05/01 01:14:59;;;;;;;25.80;23.15;;;10.40;77.10;;;;;;4999327;28;20438;-76
2021/05/01 01:17:28;;;;;;;26.45;23.67;;;10.40;77.10;;;;;;5032220;28;20563;-76
2021/05/01 01:19:53;;;;;;;26.92;24.08;;;10.40;77.20;;;;;;5032461;28;20037;-75
2021/05/01 01:22:19;;;;;;;27.33;24.50;;;10.40;77.30;;;;;;4998367;28;20125;-75
2021/05/01 01:24:45;;;;;;;27.48;24.65;;;10.40;77.30;;;;;;5009965;28;20041;-75
2021/05/01 01:27:11;;;;;;;27.35;24.45;;;10.40;77.40;;;;;;4994079;28;20089;-76
2021/05/01 01:29:38;;;;;;;26.65;23.80;;;10.40;77.30;;;;;;4978522;28;20046;-77
2021/05/01 01:32:07;;;;;;;26.65;23.88;;;10.40;77.30;;;;;;5007525;28;20042;-75
2021/05/01 01:34:34;;;;;;;27.08;24.27;;;10.40;77.30;;;;;;4996286;28;20049;-76
2021/05/01 01:37:00;;;;;;;27.20;24.35;;;10.40;77.30;;;;;;5014388;28;20056;-76
2021/05/01 01:39:25;;;;;;;27.10;24.25;;;10.40;77.40;;;;;;5000963;28;20383;-75
2021/05/01 01:41:51;;;;;;;27.95;25.05;;;10.30;77.30;;;;;;5032881;28;20052;-75
2021/05/01 01:44:17;;;;;;;26.33;23.55;;;10.40;77.40;;;;;;5016025;28;20462;-75
2021/05/01 01:46:43;;;;;;;26.55;23.60;;;10.30;77.40;;;;;;4995448;28;20045;-75
2021/05/01 01:49:09;;;;;;;28.40;25.45;;;10.30;77.30;;;;;;4995874;28;20072;-75
2021/05/01 01:51:35;;;;;;;27.98;24.98;;;10.30;77.30;;;;;;4994635;28;20553;-76
2021/05/01 01:54:01;;;;;;;27.45;24.60;;;10.30;77.50;;;;;;4995837;28;20052;-76
2021/05/01 01:56:27;;;;;;;27.33;24.40;;;10.30;77.60;;;;;;4996791;28;20050;-75
2021/05/01 01:58:53;;;;;;;27.48;24.58;;;10.20;77.50;;;;;;4993459;28;20103;-75
2021/05/01 02:01:20;;;;;;;26.98;24.15;;;10.20;77.50;;;;;;5004060;28;20540;-75
2021/05/01 02:03:46;;;;;;;26.98;24.20;;;10.20;77.50;;;;;;4997925;28;20107;-75
2021/05/01 02:06:12;;;;;;;26.67;23.77;;;10.10;77.50;;;;;;5012085;28;20046;-74
2021/05/01 02:08:38;;;;;;;27.40;24.60;;;10.20;77.70;;;;;;5030683;28;20061;-77
2021/05/01 02:11:03;;;;;;;27.40;24.50;;;10.10;77.70;;;;;;5000980;28;20092;-76
2021/05/01 02:13:29;;;;;;;26.33;23.55;;;10.10;77.70;;;;;;4979378;28;20049;-76
2021/05/01 02:15:55;;;;;;;27.17;24.25;;;10.10;77.80;;;;;;4994805;28;20604;-76
2021/05/01 02:18:21;;;;;;;27.13;24.35;;;10.00;77.70;;;;;;4995400;28;20053;-76
2021/05/01 02:20:47;;;;;;;27.42;24.52;;;10.00;78.50;;;;;;5019548;28;20076;-76
2021/05/01 02:23:12;;;;;;;25.70;23.02;;;10.00;77.80;;;;;;4998362;28;20079;-76
2021/05/01 02:25:38;;;;;;;27.63;24.67;;;10.00;77.90;;;;;;5030735;28;20049;-77
2021/05/01 02:28:04;;;;;;;26.33;23.42;;;10.00;77.80;;;;;;5014792;28;20073;-76
2021/05/01 02:30:30;;;;;;;25.95;23.30;;;10.00;77.90;;;;;;5015153;28;20450;-76
2021/05/01 02:32:57;;;;;;;25.50;22.80;;;10.00;77.90;;;;;;5014408;28;20049;-75
2021/05/01 02:35:25;;;;;;;27.65;24.70;;;9.90;77.90;;;;;;4996720;28;20037;-75
2021/05/01 02:37:51;;;;;;;26.48;23.67;;;9.90;77.90;;;;;;4994786;28;20149;-76
2021/05/01 02:40:17;;;;;;;26.27;23.58;;;10.00;78.10;;;;;;5012725;28;20124;-76
2021/05/01 02:42:43;;;;;;;26.63;23.67;;;9.90;78.00;;;;;;4978084;28;20048;-75
2021/05/01 02:45:11;;;;;;;27.75;24.40;;;10.00;78.10;;;;;;4978794;28;20060;-75
2021/05/01 02:47:37;;;;;;;28.73;25.63;;;9.90;78.20;;;;;;4979014;28;20042;-78
2021/05/01 02:50:04;;;;;;;29.98;26.88;;;9.90;78.30;;;;;;4995846;28;20137;-75
2021/05/01 02:52:30;;;;;;;28.83;25.75;;;9.90;78.30;;;;;;4994903;28;20061;-75
2021/05/01 02:54:56;;;;;;;30.08;26.20;;;9.90;78.40;;;;;;4998759;28;20049;-77
2021/05/01 02:57:22;;;;;;;30.67;27.38;;;9.90;78.30;;;;;;5029992;28;20053;-76
2021/05/01 02:59:48;;;;;;;30.27;27.13;;;9.90;79.10;;;;;;5015973;28;20088;-76
2021/05/01 03:02:13;;;;;;;29.38;26.27;;;10.00;78.50;;;;;;4993487;28;20065;-75
2021/05/01 03:04:39;;;;;;;30.48;27.02;;;9.90;78.50;;;;;;4993444;28;20080;-79
2021/05/01 03:07:05;;;;;;;30.13;26.92;;;9.90;78.50;;;;;;4993169;28;20390;-75
2021/05/01 03:09:31;;;;;;;31.02;27.70;;;9.90;78.50;;;;;;4993693;28;20050;-76
2021/05/01 03:11:57;;;;;;;29.98;26.75;;;9.90;78.50;;;;;;4992911;28;20091;-76
2021/05/01 03:14:25;;;;;;;30.92;26.42;;;9.90;78.60;;;;;;4993490;28;20351;-77
2021/05/01 03:16:52;;;;;;;32.03;28.48;;;9.90;78.60;;;;;;4993193;28;20046;-76
2021/05/01 03:19:18;;;;;;;31.67;27.65;;;9.90;78.60;;;;;;4998422;28;20096;-76
2021/05/01 03:21:43;;;;;;;30.63;27.33;;;9.90;78.60;;;;;;4996175;28;20437;-80
2021/05/01 03:24:10;;;;;;;31.58;27.13;;;9.90;78.60;;;;;;5013167;28;20046;-76
2021/05/01 03:26:36;;;;;;;32.50;29.00;;;9.90;78.60;;;;;;5012972;28;20100;-76
2021/05/01 03:29:02;;;;;;;31.27;26.40;;;9.90;78.80;;;;;;5012290;28;20565;-76
2021/05/01 03:31:28;;;;;;;31.83;27.45;;;9.90;78.80;;;;;;5030388;28;20053;-76
2021/05/01 03:33:54;;;;;;;32.55;27.30;;;9.90;78.80;;;;;;5032343;28;20045;-76
2021/05/01 03:36:22;;;;;;;31.85;27.65;;;9.90;78.80;;;;;;5033363;28;20057;-75
2021/05/01 03:38:48;;;;;;;29.02;25.90;;;9.90;78.80;;;;;;5015847;28;20064;-78
2021/05/01 03:41:16;;;;;;;32.67;26.77;;;9.90;78.80;;;;;;5016805;28;20041;-75
2021/05/01 03:43:42;;;;;;;30.50;26.27;;;9.90;78.80;;;;;;5000658;28;20091;-76
2021/05/01 03:46:07;;;;;;;30.55;25.58;;;9.80;78.80;;;;;;5015986;28;20049;-75
2021/05/01 03:48:34;;;;;;;29.75;26.45;;;9.90;78.90;;;;;;4984231;28;20513;-76
2021/05/01 03:51:00;;;;;;;30.52;25.85;;;9.80;78.80;;;;;;4999496;28;20049;-75
2021/05/01 03:53:29;;;;;;;29.52;25.10;;;9.80;78.90;;;;;;5016791;28;20454;-76
2021/05/01 03:55:55;;;;;;;28.42;24.85;;;9.90;79.00;;;;;;5031955;28;20050;-75
2021/05/01 03:58:20;;;;;;;30.80;25.40;;;9.90;79.00;;;;;;4984103;28;20049;-75
2021/05/01 04:00:46;;;;;;;31.90;25.90;;;9.90;78.90;;;;;;5032891;28;20046;-76
2021/05/01 04:03:12;;;;;;;30.73;24.20;;;9.80;79.00;;;;;;5015963;28;20044;-76
2021/05/01 04:05:38;;;;;;;27.17;23.58;;;9.80;79.00;;;;;;5000220;28;20079;-76
2021/05/01 04:08:04;;;;;;;28.63;23.50;;;9.80;79.00;;;;;;5015719;28;20116;-77
2021/05/01 04:10:30;;;;;;;28.35;24.25;;;9.80;79.00;;;;;;5016068;28;20550;-75
2021/05/01 04:12:56;;;;;;;24.98;21.88;;;9.80;79.00;;;;;;4999010;28;20128;-77
2021/05/01 04:15:22;;;;;;;28.75;22.15;;;9.80;79.10;;;;;;5016200;28;20474;-76
2021/05/01 04:17:48;;;;;;;26.05;22.50;;;9.80;79.00;;;;;;5016192;28;20556;-76
2021/05/01 04:20:14;;;;;;;25.35;21.50;;;9.80;79.10;;;;;;5015348;28;20076;-76
2021/05/01 04:22:39;;;;;;;24.67;21.70;;;9.80;79.10;;;;;;5016046;28;20049;-76
2021/05/01 04:25:06;;;;;;;25.13;21.67;;;9.80;79.20;;;;;;4999161;28;20152;-76
2021/05/01 04:27:32;;;;;;;23.80;20.90;;;9.80;79.10;;;;;;5015891;28;20075;-76
2021/05/01 04:29:58;;;;;;;26.00;21.08;;;9.80;79.10;;;;;;5033132;28;20046;-76
2021/05/01 04:32:23;;;;;;;21.52;19.20;;;9.80;79.00;;;;;;5016284;28;20053;-76
2021/05/01 04:34:49;;;;;;;22.50;19.20;;;9.80;79.10;;;;;;4999844;28;20053;-75
2021/05/01 04:37:15;;;;;;;22.58;19.48;;;9.70;79.00;;;;;;5015223;28;20887;-76
2021/05/01 04:39:41;;;;;;;24.70;19.15;;;9.80;79.00;;;;;;4999716;28;20045;-76
2021/05/01 04:42:07;;;;;;;20.58;18.15;;;9.70;79.00;;;;;;5014359;28;20046;-74
2021/05/01 04:44:33;;;;;;;23.63;18.55;;;9.80;79.00;;;;;;5011489;28;20114;-75
2021/05/01 04:46:58;;;;;;;20.77;18.52;;;9.80;79.10;;;;;;5014941;28;20458;-76
2021/05/01 04:49:25;;;;;;;23.33;18.60;;;9.80;79.00;;;;;;5032229;28;20046;-75
2021/05/01 04:51:51;;;;;;;19.85;17.02;;;9.70;78.90;;;;;;5015596;28;20387;-75
2021/05/01 04:54:16;;;;;;;19.95;17.15;;;9.80;79.00;;;;;;5015028;28;20080;-75
2021/05/01 04:56:42;;;;;;;22.58;18.17;;;9.80;79.00;;;;;;4999254;28;20414;-74
2021/05/01 04:59:08;;;;;;;23.63;17.52;;;9.80;79.00;;;;;;4995190;28;20042;-76
2021/05/01 05:01:34;;;;;;;17.73;15.82;;;9.80;79.00;;;;;;4996173;28;20104;-75
2021/05/01 05:04:01;;;;;;;20.30;16.65;;;9.80;79.00;;;;;;4995369;28;20076;-78
2021/05/01 05:06:27;;;;;;;23.58;16.33;;;9.80;79.00;;;;;;4998862;28;20064;-76
2021/05/01 05:08:53;;;;;;;21.13;16.42;;;9.80;78.90;;;;;;4999033;28;20343;-77
2021/05/01 05:11:19;;;;;;;26.42;16.00;;;9.80;78.90;;;;;;4998501;28;20038;-75
2021/05/01 05:13:45;;;;;;;20.55;15.23;;;9.80;78.90;;;;;;5015444;28;20482;-76
2021/05/01 05:16:10;;;;;;;18.63;15.18;;;9.80;78.90;;;;;;5014633;28;20045;-78
2021/05/01 05:18:36;;;;;;;20.70;15.65;;;9.80;78.90;;;;;;5015428;28;20502;-75
2021/05/01 05:21:02;;;;;;;18.70;16.08;;;9.80;78.90;;;;;;4998149;28;20397;-77
2021/05/01 05:23:30;;;;;;;20.60;15.57;;;9.80;79.00;;;;;;5015373;28;20064;-76
2021/05/01 05:25:56;;;;;;;17.48;15.60;;;9.80;79.00;;;;;;5031425;28;20046;-76
2021/05/01 05:28:22;;;;;;;18.85;15.98;;;9.80;78.90;;;;;;4997873;28;20129;-76
2021/05/01 05:30:48;;;;;;;18.45;14.02;;;9.80;79.00;;;;;;5015103;28;20091;-76
2021/05/01 05:33:14;;;;;;;19.67;14.63;;;9.80;78.90;;;;;;5030944;28;20132;-76
2021/05/01 05:35:39;;;;;;;18.95;13.90;;;9.80;78.90;;;;;;4998618;28;20053;-76
2021/05/01 05:38:05;;;;;;;18.08;15.02;;;9.80;79.00;;;;;;5014157;28;20053;-77
2021/05/01 05:40:34;;;;;;;15.80;12.90;;;9.80;78.90;;;;;;4998269;28;20457;-76
2021/05/01 05:43:01;;;;;;;19.73;13.43;;;9.80;78.80;;;;;;5015039;28;20045;-77
2021/05/01 05:45:30;;;;;;;19.33;13.75;;;9.90;78.90;;;;;;4997543;28;20046;-77
2021/05/01 05:47:55;;;;;;;18.10;12.88;;;10.00;79.00;;;;;;4998610;28;20076;-76
2021/05/01 05:50:22;;;;;;;20.02;13.57;;;9.90;78.90;;;;;;4997898;28;20103;-76
2021/05/01 05:52:48;;;;;;;19.02;13.25;;;10.00;78.80;;;;;;4998089;28;20140;-76
2021/05/01 05:55:18;;;;;;;19.25;13.45;;;10.00;78.90;;;;;;4996777;28;20045;-76
2021/05/01 05:57:52;;;;;;;19.83;13.35;;;10.00;78.70;;;;;;4982834;28;20072;-77
2021/05/01 06:00:19;;;;;;;18.05;12.90;;;10.00;78.80;;;;;;4981011;28;20045;-76
2021/05/01 06:02:45;;;;;;;19.30;13.07;;;10.00;78.60;;;;;;4998222;28;20041;-76
2021/05/01 06:05:22;;;;;;;17.58;13.85;;;10.00;78.70;;;;;;4997418;28;20054;-76
2021/05/01 06:07:49;;;;;;;22.20;13.23;;;10.10;78.70;;;;;;5014140;28;20047;-78
2021/05/01 06:10:15;;;;;;;18.63;12.80;;;10.10;78.70;;;;;;4981378;28;20394;-76
2021/05/01 06:12:42;;;;;;;19.83;13.32;;;10.10;78.60;;;;;;4998008;28;20128;-76
2021/05/01 06:15:09;;;;;;;18.60;12.77;;;10.10;78.60;;;;;;5014198;28;20076;-76
2021/05/01 06:17:36;;;;;;;17.88;14.32;;;10.00;78.60;;;;;;4998022;28;20045;-74
2021/05/01 06:20:04;;;;;;;17.98;14.13;;;10.10;78.50;;;;;;4997914;28;20037;-75
2021/05/01 06:22:30;;;;;;;18.10;13.15;;;10.20;78.50;;;;;;5013311;28;20268;-76
2021/05/01 06:24:55;;;;;;;20.75;14.00;;;10.20;78.50;;;;;;5013752;28;20061;-75
2021/05/01 06:27:21;;;;;;;21.13;14.75;;;10.20;78.40;;;;;;5013269;28;20538;-76
2021/05/01 06:29:47;;;;;;;16.50;13.20;;;10.30;78.20;;;;;;4997671;28;20065;-78
2021/05/01 06:32:14;;;;;;;19.52;13.82;;;10.40;78.00;;;;;;4996758;28;20472;-77
2021/05/01 06:34:45;;;;;;;19.08;14.15;;;10.40;78.00;;;;;;4997261;28;20045;-76
2021/05/01 06:37:13;;;;;;;20.65;13.45;;;10.50;78.00;;;;;;4997153;28;20081;-79
2021/05/01 06:39:39;;;;;;;15.50;13.70;;;10.50;77.90;;;;;;4997975;28;20039;-75
2021/05/01 06:42:11;;;;;;;20.30;14.07;;;10.60;77.90;;;;;;5031496;28;20053;-76
2021/05/01 06:44:40;;;;;;;15.57;12.57;;;10.60;77.70;;;;;;5014043;28;20045;-76
2021/05/01 06:47:06;;;;;;;15.75;13.30;;;10.60;77.30;;;;;;4997307;28;20049;-76
2021/05/01 06:49:38;;;;;;;20.20;12.93;;;10.60;77.20;;;;;;5012642;28;20550;-76
2021/05/01 06:52:07;;;;;;;17.95;14.13;;;10.70;77.10;;;;;;4997867;28;20096;-77
2021/05/01 06:54:32;;;;;;;24.52;14.55;;;10.70;76.90;;;;;;4996632;28;20220;-76
2021/05/01 06:56:58;;;;;;;17.88;13.50;;;10.70;77.10;;;;;;5013460;28;20052;-76
2021/05/01 06:59:24;;;;;;;17.02;13.02;;;10.70;76.90;;;;;;4996200;28;20151;-76
2021/05/01 07:01:50;;;;;;;17.45;13.60;;;10.70;76.90;;;;;;5013413;28;20056;-76
2021/05/01 07:04:16;;;;;;;17.17;12.98;;;10.70;76.70;;;;;;4996823;28;20104;-82
2021/05/01 07:06:42;;;;;;;14.88;13.13;;;10.70;76.40;;;;;;4996501;28;20041;-77
2021/05/01 07:09:07;;;;;;;17.90;13.38;;;10.70;76.50;;;;;;4981165;28;20440;-76
2021/05/01 07:11:33;;;;;;;17.10;13.02;;;10.80;76.40;;;;;;5012408;28;20052;-76
2021/05/01 07:13:59;;;;;;;18.45;14.13;;;10.80;76.40;;;;;;5013419;28;20037;-76
2021/05/01 07:16:25;;;;;;;15.75;12.52;;;10.80;76.30;;;;;;4996004;28;20045;-77
2021/05/01 07:18:51;;;;;;;17.27;13.63;;;10.80;76.20;;;;;;5013362;28;20191;-75
2021/05/01 07:21:18;;;;;;;14.93;11.98;;;10.80;75.90;;;;;;5012858;28;20487;-80
2021/05/01 07:23:44;;;;;;;17.05;13.00;;;10.80;75.60;;;;;;4996710;28;20098;-76
2021/05/01 07:26:13;;;;;;;14.60;11.98;;;10.90;75.20;;;;;;4993221;28;20133;-76
2021/05/01 07:28:39;;;;;;;15.15;12.02;;;10.90;75.00;;;;;;4992949;28;20045;-77
2021/05/01 07:31:06;;;;;;;13.70;11.73;;;10.90;74.80;;;;;;5010065;28;20506;-75
2021/05/01 07:33:35;;;;;;;15.77;11.52;;;10.90;74.60;;;;;;5004031;28;20038;-76
2021/05/01 07:36:24;;;;;;;14.55;11.88;;;11.00;74.40;;;;;;4976956;28;20124;-76
2021/05/01 07:38:51;;;;;;;15.38;11.32;;;10.90;74.10;;;;;;4985179;28;20046;-76
2021/05/01 07:41:17;;;;;;;13.70;11.02;;;10.90;73.90;;;;;;4992253;28;20042;-76
2021/05/01 07:43:47;;;;;;;12.98;11.68;;;10.90;73.70;;;;;;4976210;28;20103;-76
2021/05/01 07:46:13;;;;;;;14.35;11.27;;;10.90;73.50;;;;;;5006928;28;20049;-76
2021/05/01 07:48:39;;;;;;;13.98;11.32;;;10.80;73.30;;;;;;4986601;28;20379;-76
2021/05/01 07:51:05;;;;;;;12.48;10.98;;;10.80;73.10;;;;;;4975863;28;20057;-77
2021/05/01 07:53:31;;;;;;;14.18;11.05;;;10.80;73.20;;;;;;5005639;28;20030;-76
2021/05/01 07:55:57;;;;;;;12.43;11.15;;;10.80;72.80;;;;;;5008710;28;20501;-76
2021/05/01 07:58:22;;;;;;;13.20;11.05;;;10.80;72.60;;;;;;4988682;28;20048;-81
2021/05/01 08:00:48;;;;;;;12.35;10.55;;;10.80;72.30;;;;;;4988825;28;20043;-77
2021/05/01 08:03:14;;;;;;;14.35;10.65;;;10.80;72.20;;;;;;4987627;28;20419;-76
2021/05/01 08:05:40;;;;;;;12.95;11.30;;;10.80;71.90;;;;;;4974901;28;20066;-76
2021/05/01 08:08:06;;;;;;;12.48;10.40;;;10.90;71.40;;;;;;4976908;28;20507;-77
2021/05/01 08:10:32;;;;;;;15.38;10.55;;;10.90;71.30;;;;;;4988315;28;20049;-75
2021/05/01 08:12:57;;;;;;;11.68;10.48;;;10.90;71.10;;;;;;4976394;28;20038;-75
2021/05/01 08:15:25;;;;;;;11.32;10.10;;;10.90;71.10;;;;;;5009004;28;20471;-76
2021/05/01 08:17:51;;;;;;;12.80;10.43;;;10.90;70.70;;;;;;4992360;28;20164;-76
2021/05/01 08:20:17;;;;;;;11.55;9.43;;;11.00;71.30;;;;;;5010757;28;20400;-76
2021/05/01 08:22:43;;;;;;;11.63;10.25;;;10.90;70.30;;;;;;5012143;28;20050;-77
2021/05/01 08:25:10;;;;;;;12.75;9.73;;;11.00;70.10;;;;;;5008607;28;20095;-77
2021/05/01 08:27:37;;;;;;;10.38;9.27;;;11.00;70.00;;;;;;4979546;28;20407;-78
2021/05/01 08:30:14;;;;;;;10.95;9.75;;;11.10;69.70;;;;;;4980435;28;20068;-78
2021/05/01 08:32:41;;;;;;;11.52;9.45;;;11.10;69.40;;;;;;4976002;28;20168;-77
2021/05/01 08:35:07;;;;;;;11.52;10.32;;;11.10;69.20;;;;;;4960289;28;20487;-76
2021/05/01 08:37:32;;;;;;;12.40;9.95;;;11.10;69.30;;;;;;4994195;28;20061;-77
2021/05/01 08:39:58;;;;;;;11.60;9.80;;;11.10;69.10;;;;;;4992682;28;20601;-76
2021/05/01 08:42:25;;;;;;;10.90;9.50;;;11.20;69.00;;;;;;4994732;28;20045;-76
2021/05/01 08:44:51;;;;;;;12.60;9.75;;;11.20;68.60;;;;;;5006682;28;20045;-76
2021/05/01 08:47:17;;;;;;;10.45;9.00;;;11.20;68.30;;;;;;5008113;28;20038;-78
2021/05/01 08:49:42;;;;;;;10.02;8.55;;;11.20;68.10;;;;;;4975303;28;20053;-75
2021/05/01 08:52:09;;;;;;;12.77;9.20;;;11.20;67.80;;;;;;4994336;28;20402;-76
2021/05/01 08:54:35;;;;;;;10.88;9.43;;;11.20;67.20;;;;;;5010415;28;20502;-76
2021/05/01 08:57:01;;;;;;;11.55;9.73;;;11.20;67.20;;;;;;4991826;28;20152;-76
2021/05/01 08:59:27;;;;;;;11.13;9.88;;;11.20;67.40;;;;;;4993792;28;20034;-75
2021/05/01 09:01:53;;;;;;;11.02;9.30;;;11.20;67.30;;;;;;5006901;28;20459;-80
2021/05/01 09:04:21;;;;;;;14.48;9.30;;;11.20;67.20;;;;;;5000634;28;20475;-77
2021/05/01 09:06:47;;;;;;;10.77;8.85;;;11.20;67.20;;;;;;5004006;28;20046;-75
2021/05/01 09:09:13;;;;;;;12.70;9.30;;;11.30;67.20;;;;;;5011766;28;20136;-79
2021/05/01 09:11:39;;;;;;;10.50;9.40;;;11.30;66.90;;;;;;4999954;28;20062;-77
2021/05/01 09:14:30;;;;;;;10.45;9.02;;;11.40;66.70;;;;;;4988224;28;20046;-78
2021/05/01 09:17:00;;;;;;;11.18;8.70;;;11.40;66.30;;;;;;5005706;28;20660;-83
2021/05/01 09:19:38;;;;;;;10.63;9.48;;;11.40;66.40;;;;;;4990819;28;20475;-79
2021/05/01 09:22:11;;;;;;;11.20;9.77;;;11.50;66.00;;;;;;4983135;28;20038;-81
2021/05/01 09:24:37;;;;;;;11.45;9.85;;;11.50;66.10;;;;;;4989914;28;20062;-85
2021/05/01 09:27:05;;;;;;;11.98;10.68;;;11.50;66.10;;;;;;4994740;28;20594;-79
2021/05/01 09:29:35;;;;;;;11.02;9.68;;;11.60;66.30;;;;;;4975432;28;20108;-79
2021/05/01 09:32:01;;;;;;;11.95;9.38;;;11.60;66.10;;;;;;4964531;28;20133;-79
2021/05/01 09:35:03;;;;;;;12.02;9.88;;;11.60;65.70;;;;;;4983516;28;20462;-75
2021/05/01 09:37:30;;;;;;;12.05;9.73;;;11.70;65.30;;;;;;4933867;29;20055;-78
2021/05/01 09:39:56;;;;;;;10.15;9.13;;;11.80;65.60;;;;;;4969756;28;20077;-76
2021/05/01 09:42:23;;;;;;;10.23;8.73;;;11.90;65.40;;;;;;4974915;28;20046;-77
2021/05/01 09:45:06;;;;;;;10.02;8.95;;;11.90;64.70;;;;;;4985813;28;20053;-76
2021/05/01 09:47:33;;;;;;;8.68;7.78;;;12.00;64.80;;;;;;4991503;28;20129;-75
2021/05/01 09:50:01;;;;;;;10.23;8.65;;;12.20;65.00;;;;;;4991005;28;20030;-77
2021/05/01 09:52:27;;;;;;;9.32;7.55;;;12.30;64.90;;;;;;4975193;28;20508;-78
2021/05/01 09:54:53;;;;;;;8.70;7.80;;;12.40;64.80;;;;;;4994749;28;20049;-79
2021/05/01 09:57:20;;;;;;;9.20;8.25;;;12.50;63.80;;;;;;4994903;28;20046;-78
2021/05/01 09:59:50;;;;;;;8.68;7.78;;;12.50;63.30;;;;;;5011333;28;20038;-76
2021/05/01 10:02:20;;;;;;;9.27;8.30;;;12.60;62.90;;;;;;4995271;28;20045;-78
2021/05/01 10:05:12;;;;;;;9.98;8.85;;;12.70;63.20;;;;;;4978883;28;20546;-78
2021/05/01 10:07:41;;;;;;;11.02;8.43;;;12.70;62.30;;;;;;5007078;28;20110;-77
2021/05/01 10:10:07;;;;;;;10.02;7.88;;;12.70;62.50;;;;;;4978432;28;20041;-77
2021/05/01 10:12:42;;;;;;;10.48;8.55;;;12.70;62.30;;;;;;4990869;28;20046;-82
2021/05/01 10:15:18;;;;;;;9.40;7.95;;;12.80;62.20;;;;;;5002797;28;20105;-78
2021/05/01 10:17:48;;;;;;;11.20;8.15;;;12.90;61.80;;;;;;4990542;28;20096;-83
2021/05/01 10:20:17;;;;;;;9.45;8.32;;;12.90;61.90;;;;;;4990267;28;20567;-77
2021/05/01 10:22:44;;;;;;;8.48;7.43;;;13.00;61.80;;;;;;5006834;28;20093;-84
2021/05/01 10:25:19;;;;;;;8.10;7.30;;;13.00;61.50;;;;;;4991586;28;20541;-78
2021/05/01 10:28:09;;;;;;;9.85;8.23;;;13.10;61.00;;;;;;5002290;28;20065;-84
2021/05/01 10:30:58;;;;;;;8.20;6.60;;;13.10;61.00;;;;;;4988676;28;20034;-84
2021/05/01 10:33:33;;;;;;;8.30;7.45;;;13.20;61.40;;;;;;4988596;28;20185;-83
2021/05/01 10:36:17;;;;;;;8.10;4.25;;;13.30;61.40;;;;;;5002840;28;20043;-76
2021/05/01 10:38:43;;;;;;;7.70;6.70;;;13.40;62.20;;;;;;5004753;28;20042;-77
2021/05/01 10:41:17;;;;;;;9.23;7.47;;;13.60;61.30;;;;;;4994742;28;20558;-81
2021/05/01 10:43:53;;;;;;;9.57;8.10;;;13.70;60.10;;;;;;4983652;28;20097;-82
2021/05/01 10:46:22;;;;;;;9.07;7.60;;;13.80;60.40;;;;;;4964796;28;20046;-76
2021/05/01 10:48:48;;;;;;;10.10;8.68;;;13.90;60.70;;;;;;4982267;28;20042;-80
2021/05/01 10:51:24;;;;;;;11.18;10.07;;;14.10;59.90;;;;;;5000936;28;20505;-81
2021/05/01 10:54:21;;;;;;;9.95;8.38;;;14.20;58.70;;;;;;4972113;28;20058;-83
2021/05/01 10:56:52;;;;;;;11.18;9.68;;;14.30;58.10;;;;;;4973986;28;20427;-82
2021/05/01 10:59:30;;;;;;;10.65;9.50;;;14.30;58.00;;;;;;4989774;28;20046;-77
2021/05/01 11:01:57;;;;;;;11.73;10.15;;;14.30;57.50;;;;;;4959638;28;20042;-77
2021/05/01 11:04:27;;;;;;;12.57;11.27;;;14.20;57.40;;;;;;4958559;28;20053;-77
2021/05/01 11:07:07;;;;;;;12.77;10.82;;;14.20;57.70;;;;;;4973676;28;20047;-78
2021/05/01 11:09:46;;;;;;;11.65;10.48;;;14.10;57.70;;;;;;4988337;28;20121;-77
2021/05/01 11:12:17;;;;;;;11.80;9.40;;;14.00;57.80;;;;;;5011307;28;20049;-78
2021/05/01 11:14:52;;;;;;;10.50;9.40;;;14.00;58.00;;;;;;5000638;28;20407;-76
2021/05/01 11:17:34;;;;;;;8.85;7.35;;;14.00;58.20;;;;;;5001223;28;20057;-78
2021/05/01 11:20:08;;;;;;;7.13;6.43;;;14.10;58.10;;;;;;5016835;28;20045;-79
2021/05/01 11:22:38;;;;;;;6.85;5.70;;;14.10;57.40;;;;;;4976215;28;20054;-78
2021/05/01 11:25:08;;;;;;;7.25;6.45;;;14.10;56.60;;;;;;4997806;28;20075;-77
2021/05/01 11:27:34;;;;;;;7.07;5.65;;;14.20;56.40;;;;;;5009719;28;20548;-77
2021/05/01 11:30:05;;;;;;;7.63;6.32;;;14.30;56.70;;;;;;4998002;28;20090;-79
2021/05/01 11:32:31;;;;;;;6.65;5.93;;;14.60;56.50;;;;;;4981635;28;20130;-78
2021/05/01 11:35:06;;;;;;;6.25;5.22;;;14.90;56.30;;;;;;4965761;28;20083;-78
2021/05/01 11:37:45;;;;;;;6.78;4.90;;;15.20;55.50;;;;;;4986699;28;20050;-81
2021/05/01 11:40:12;;;;;;;5.82;4.43;;;15.50;54.00;;;;;;5008970;28;20179;-79
2021/05/01 11:42:39;;;;;;;6.18;5.50;;;15.80;53.20;;;;;;4989874;28;20049;-78
2021/05/01 11:45:12;;;;;;;5.47;4.97;;;16.10;52.40;;;;;;4993094;28;20052;-76
2021/05/01 11:47:49;;;;;;;5.90;4.93;;;16.40;51.80;;;;;;4987062;28;20089;-77
2021/05/01 11:50:15;;;;;;;5.72;5.20;;;16.60;50.90;;;;;;4983051;28;20156;-79
2021/05/01 11:52:44;;;;;;;8.05;5.18;;;16.90;50.80;;;;;;4976965;28;20160;-78
2021/05/01 11:55:33;;;;;;;5.68;4.65;;;17.10;50.20;;;;;;4997534;28;20042;-78
2021/05/01 11:58:00;;;;;;;5.72;5.13;;;17.40;49.00;;;;;;4984558;28;20058;-85
2021/05/01 12:00:46;;;;;;;7.63;5.03;;;17.50;48.70;;;;;;5001242;28;20059;-78
2021/05/01 12:03:23;;;;;;;5.65;4.10;;;17.80;47.50;;;;;;4983799;28;20066;-79
2021/05/01 12:05:52;;;;;;;5.78;4.18;;;18.10;47.50;;;;;;4981115;28;20050;-79
2021/05/01 12:08:21;;;;;;;5.68;4.00;;;18.30;46.40;;;;;;5014140;28;20050;-79
2021/05/01 12:10:55;;;;;;;6.57;4.10;;;18.50;44.80;;;;;;5015331;28;20112;-78
2021/05/01 12:13:37;;;;;;;6.68;4.15;;;18.70;43.90;;;;;;4982047;28;20049;-77
2021/05/01 12:16:04;;;;;;;5.65;3.95;;;18.90;44.00;;;;;;5008042;28;20073;-81
2021/05/01 12:18:46;;;;;;;6.07;4.13;;;19.10;43.80;;;;;;4976151;28;20042;-77
2021/05/01 12:21:18;;;;;;;5.40;4.37;;;19.30;42.60;;;;;;5002382;28;20050;-80
2021/05/01 12:23:48;;;;;;;3.72;2.97;;;19.40;42.40;;;;;;5011834;28;20350;-77
2021/05/01 12:26:32;;;;;;;4.95;3.50;;;19.50;41.80;;;;;;4978222;28;20057;-80
2021/05/01 12:29:25;;;;;;;4.82;3.92;;;19.70;40.00;;;;;;5018985;28;20061;-79
2021/05/01 12:31:53;;;;;;;4.75;3.60;;;19.80;39.40;;;;;;5030029;28;20057;-79
2021/05/01 12:34:19;;;;;;;5.35;3.53;;;19.90;40.30;;;;;;4991575;28;20050;-78
2021/05/01 12:36:52;;;;;;;4.35;3.35;;;19.90;39.30;;;;;;4972839;28;20049;-77
2021/05/01 12:39:19;;;;;;;6.38;4.45;;;20.00;39.40;;;;;;5017618;28;20042;-75
2021/05/01 12:41:46;;;;;;;6.18;4.55;;;20.10;39.40;;;;;;4986132;28;20136;-77